sensor_id;sensor_type;location;lat;lon;timestamp;P1;durP1;ratioP1;P2;durP2;ratioP2
6203;SDS011;3135;42.602;23.468;2023-08-07T00:00:08;0.50;;;0.50;;
6203;SDS011;3135;42.602;23.468;2023-08-07T00:02:34;0.50;;;0.50;;
6203;SDS011;3135;42.602;23.468;2023-08-07T00:05:00;0.50;;;0.50;;
6203;SDS011;3135;42.602;23.468;2023-08-07T00:07:25;1.00;;;0.60;;
6203;SDS011;3135;42.602;23.468;2023-08-07T00:09:51;0.60;;;0.60;;
6203;SDS011;3135;42.602;23.468;2023-08-07T00:12:16;0.77;;;0.60;;
6203;SDS011;3135;42.602;23.468;2023-08-07T00:14:42;1.27;;;0.57;;
6203;SDS011;3135;42.602;23.468;2023-08-07T00:17:07;0.70;;;0.70;;
6203;SDS011;3135;42.602;23.468;2023-08-07T00:19:33;0.57;;;0.57;;
6203;SDS011;3135;42.602;23.468;2023-08-07T00:21:59;0.60;;;0.60;;
6203;SDS011;3135;42.602;23.468;2023-08-07T00:24:24;0.70;;;0.50;;
6203;SDS011;3135;42.602;23.468;2023-08-07T00:26:49;0.60;;;0.60;;
6203;SDS011;3135;42.602;23.468;2023-08-07T00:29:15;1.50;;;0.70;;
6203;SDS011;3135;42.602;23.468;2023-08-07T00:31:40;0.90;;;0.80;;
6203;SDS011;3135;42.602;23.468;2023-08-07T00:34:06;1.50;;;0.80;;
6203;SDS011;3135;42.602;23.468;2023-08-07T00:36:31;0.87;;;0.87;;
6203;SDS011;3135;42.602;23.468;2023-08-07T00:39:00;1.60;;;0.80;;
6203;SDS011;3135;42.602;23.468;2023-08-07T00:41:25;1.30;;;0.70;;
6203;SDS011;3135;42.602;23.468;2023-08-07T00:43:51;0.70;;;0.70;;
6203;SDS011;3135;42.602;23.468;2023-08-07T00:46:16;0.90;;;0.90;;
6203;SDS011;3135;42.602;23.468;2023-08-07T00:48:43;1.33;;;0.80;;
6203;SDS011;3135;42.602;23.468;2023-08-07T00:51:09;0.83;;;0.83;;
6203;SDS011;3135;42.602;23.468;2023-08-07T00:53:37;1.00;;;0.90;;
6203;SDS011;3135;42.602;23.468;2023-08-07T00:56:03;1.07;;;1.00;;
6203;SDS011;3135;42.602;23.468;2023-08-07T00:58:29;0.90;;;0.90;;
6203;SDS011;3135;42.602;23.468;2023-08-07T01:00:55;1.00;;;1.00;;
6203;SDS011;3135;42.602;23.468;2023-08-07T01:03:21;0.83;;;0.83;;
6203;SDS011;3135;42.602;23.468;2023-08-07T01:05:46;1.90;;;1.00;;
6203;SDS011;3135;42.602;23.468;2023-08-07T01:08:12;1.10;;;1.00;;
6203;SDS011;3135;42.602;23.468;2023-08-07T01:13:29;1.20;;;1.10;;
6203;SDS011;3135;42.602;23.468;2023-08-07T01:16:01;1.20;;;1.10;;
6203;SDS011;3135;42.602;23.468;2023-08-07T01:18:34;1.55;;;1.00;;
6203;SDS011;3135;42.602;23.468;2023-08-07T01:21:02;1.30;;;1.20;;
6203;SDS011;3135;42.602;23.468;2023-08-07T01:23:28;1.27;;;1.10;;
6203;SDS011;3135;42.602;23.468;2023-08-07T01:25:54;1.40;;;1.10;;
6203;SDS011;3135;42.602;23.468;2023-08-07T01:28:54;1.40;;;1.30;;
6203;SDS011;3135;42.602;23.468;2023-08-07T01:31:15;1.20;;;1.10;;
6203;SDS011;3135;42.602;23.468;2023-08-07T01:34:05;2.20;;;1.23;;
6203;SDS011;3135;42.602;23.468;2023-08-07T01:36:33;1.30;;;1.20;;
6203;SDS011;3135;42.602;23.468;2023-08-07T01:39:00;1.20;;;1.10;;
6203;SDS011;3135;42.602;23.468;2023-08-07T01:41:28;1.48;;;1.23;;
6203;SDS011;3135;42.602;23.468;2023-08-07T01:43:54;1.10;;;1.10;;
6203;SDS011;3135;42.602;23.468;2023-08-07T01:46:20;1.00;;;0.97;;
6203;SDS011;3135;42.602;23.468;2023-08-07T01:48:45;1.40;;;1.30;;
6203;SDS011;3135;42.602;23.468;2023-08-07T01:51:11;1.40;;;1.30;;
6203;SDS011;3135;42.602;23.468;2023-08-07T01:53:36;1.50;;;1.40;;
6203;SDS011;3135;42.602;23.468;2023-08-07T01:56:02;1.20;;;1.10;;
6203;SDS011;3135;42.602;23.468;2023-08-07T01:58:27;1.17;;;1.15;;
6203;SDS011;3135;42.602;23.468;2023-08-07T02:00:53;1.40;;;1.30;;
6203;SDS011;3135;42.602;23.468;2023-08-07T02:03:19;1.47;;;1.30;;
6203;SDS011;3135;42.602;23.468;2023-08-07T02:05:48;2.10;;;1.30;;
6203;SDS011;3135;42.602;23.468;2023-08-07T02:08:13;1.90;;;1.40;;
6203;SDS011;3135;42.602;23.468;2023-08-07T02:10:39;1.40;;;1.30;;
6203;SDS011;3135;42.602;23.468;2023-08-07T02:13:05;1.50;;;1.40;;
6203;SDS011;3135;42.602;23.468;2023-08-07T02:15:30;1.60;;;1.50;;
6203;SDS011;3135;42.602;23.468;2023-08-07T02:17:55;1.80;;;1.60;;
6203;SDS011;3135;42.602;23.468;2023-08-07T02:20:21;2.53;;;1.60;;
6203;SDS011;3135;42.602;23.468;2023-08-07T02:22:46;1.70;;;1.60;;
6203;SDS011;3135;42.602;23.468;2023-08-07T02:25:12;1.60;;;1.50;;
6203;SDS011;3135;42.602;23.468;2023-08-07T02:27:37;1.83;;;1.70;;
6203;SDS011;3135;42.602;23.468;2023-08-07T02:30:03;1.90;;;1.70;;
6203;SDS011;3135;42.602;23.468;2023-08-07T02:32:30;1.88;;;1.75;;
6203;SDS011;3135;42.602;23.468;2023-08-07T02:34:55;2.00;;;1.80;;
6203;SDS011;3135;42.602;23.468;2023-08-07T02:37:21;1.80;;;1.70;;
6203;SDS011;3135;42.602;23.468;2023-08-07T02:39:46;2.10;;;1.90;;
6203;SDS011;3135;42.602;23.468;2023-08-07T02:42:12;2.03;;;1.50;;
6203;SDS011;3135;42.602;23.468;2023-08-07T02:44:37;2.33;;;1.77;;
6203;SDS011;3135;42.602;23.468;2023-08-07T02:47:03;2.27;;;1.77;;
6203;SDS011;3135;42.602;23.468;2023-08-07T02:49:29;2.60;;;1.60;;
6203;SDS011;3135;42.602;23.468;2023-08-07T02:51:54;1.90;;;1.80;;
6203;SDS011;3135;42.602;23.468;2023-08-07T02:54:19;1.83;;;1.73;;
6203;SDS011;3135;42.602;23.468;2023-08-07T02:56:45;1.80;;;1.70;;
6203;SDS011;3135;42.602;23.468;2023-08-07T02:59:10;2.33;;;1.73;;
6203;SDS011;3135;42.602;23.468;2023-08-07T03:01:36;2.50;;;2.10;;
6203;SDS011;3135;42.602;23.468;2023-08-07T03:04:01;7.30;;;2.50;;
6203;SDS011;3135;42.602;23.468;2023-08-07T03:06:27;2.40;;;2.20;;
6203;SDS011;3135;42.602;23.468;2023-08-07T03:08:52;2.00;;;1.80;;
6203;SDS011;3135;42.602;23.468;2023-08-07T03:11:17;2.40;;;2.20;;
6203;SDS011;3135;42.602;23.468;2023-08-07T03:13:43;2.50;;;2.10;;
6203;SDS011;3135;42.602;23.468;2023-08-07T03:16:09;2.15;;;2.00;;
6203;SDS011;3135;42.602;23.468;2023-08-07T03:18:35;2.50;;;2.27;;
6203;SDS011;3135;42.602;23.468;2023-08-07T03:21:01;2.47;;;2.20;;
6203;SDS011;3135;42.602;23.468;2023-08-07T03:23:27;2.38;;;2.17;;
6203;SDS011;3135;42.602;23.468;2023-08-07T03:26:06;2.00;;;1.90;;
6203;SDS011;3135;42.602;23.468;2023-08-07T03:28:32;2.23;;;2.03;;
6203;SDS011;3135;42.602;23.468;2023-08-07T03:30:59;2.33;;;1.90;;
6203;SDS011;3135;42.602;23.468;2023-08-07T03:33:24;2.53;;;2.20;;
6203;SDS011;3135;42.602;23.468;2023-08-07T03:35:49;2.50;;;2.20;;
6203;SDS011;3135;42.602;23.468;2023-08-07T03:38:15;2.00;;;1.90;;
6203;SDS011;3135;42.602;23.468;2023-08-07T03:40:40;2.30;;;2.10;;
6203;SDS011;3135;42.602;23.468;2023-08-07T03:43:06;2.43;;;2.23;;
6203;SDS011;3135;42.602;23.468;2023-08-07T03:45:31;2.30;;;2.10;;
6203;SDS011;3135;42.602;23.468;2023-08-07T03:47:57;2.30;;;2.10;;
6203;SDS011;3135;42.602;23.468;2023-08-07T03:50:22;1.92;;;1.80;;
6203;SDS011;3135;42.602;23.468;2023-08-07T03:52:47;2.27;;;2.07;;
6203;SDS011;3135;42.602;23.468;2023-08-07T03:55:13;2.10;;;1.90;;
6203;SDS011;3135;42.602;23.468;2023-08-07T03:57:38;3.17;;;1.95;;
6203;SDS011;3135;42.602;23.468;2023-08-07T04:00:04;2.47;;;2.00;;
6203;SDS011;3135;42.602;23.468;2023-08-07T04:02:30;2.20;;;2.00;;
6203;SDS011;3135;42.602;23.468;2023-08-07T04:04:55;3.33;;;1.80;;
6203;SDS011;3135;42.602;23.468;2023-08-07T04:07:21;2.20;;;2.00;;
6203;SDS011;3135;42.602;23.468;2023-08-07T04:09:47;1.90;;;1.80;;
6203;SDS011;3135;42.602;23.468;2023-08-07T04:12:12;1.80;;;1.70;;
6203;SDS011;3135;42.602;23.468;2023-08-07T04:14:38;2.33;;;2.13;;
6203;SDS011;3135;42.602;23.468;2023-08-07T04:17:03;3.33;;;2.03;;
6203;SDS011;3135;42.602;23.468;2023-08-07T04:19:29;2.17;;;1.90;;
6203;SDS011;3135;42.602;23.468;2023-08-07T04:21:54;2.00;;;1.90;;
6203;SDS011;3135;42.602;23.468;2023-08-07T04:24:20;2.00;;;1.90;;
6203;SDS011;3135;42.602;23.468;2023-08-07T04:26:45;4.07;;;2.00;;
6203;SDS011;3135;42.602;23.468;2023-08-07T04:29:10;1.93;;;1.83;;
6203;SDS011;3135;42.602;23.468;2023-08-07T04:31:36;1.70;;;1.60;;
6203;SDS011;3135;42.602;23.468;2023-08-07T04:34:02;1.83;;;1.73;;
6203;SDS011;3135;42.602;23.468;2023-08-07T04:36:27;2.13;;;1.83;;
6203;SDS011;3135;42.602;23.468;2023-08-07T04:38:52;1.90;;;1.73;;
6203;SDS011;3135;42.602;23.468;2023-08-07T04:41:20;1.92;;;1.60;;
6203;SDS011;3135;42.602;23.468;2023-08-07T04:43:46;2.30;;;1.77;;
6203;SDS011;3135;42.602;23.468;2023-08-07T04:46:13;3.85;;;2.20;;
6203;SDS011;3135;42.602;23.468;2023-08-07T04:48:39;2.35;;;1.70;;
6203;SDS011;3135;42.602;23.468;2023-08-07T04:51:04;1.88;;;1.70;;
6203;SDS011;3135;42.602;23.468;2023-08-07T04:53:30;1.97;;;1.77;;
6203;SDS011;3135;42.602;23.468;2023-08-07T04:55:55;1.70;;;1.60;;
6203;SDS011;3135;42.602;23.468;2023-08-07T04:58:21;1.70;;;1.60;;
6203;SDS011;3135;42.602;23.468;2023-08-07T05:00:46;1.75;;;1.65;;
6203;SDS011;3135;42.602;23.468;2023-08-07T05:03:12;1.70;;;1.60;;
6203;SDS011;3135;42.602;23.468;2023-08-07T05:05:37;1.80;;;1.70;;
6203;SDS011;3135;42.602;23.468;2023-08-07T05:08:03;2.90;;;1.67;;
6203;SDS011;3135;42.602;23.468;2023-08-07T05:10:30;1.77;;;1.67;;
6203;SDS011;3135;42.602;23.468;2023-08-07T05:12:55;1.65;;;1.55;;
6203;SDS011;3135;42.602;23.468;2023-08-07T05:15:24;1.90;;;1.70;;
6203;SDS011;3135;42.602;23.468;2023-08-07T05:17:51;2.22;;;1.65;;
6203;SDS011;3135;42.602;23.468;2023-08-07T05:20:17;1.90;;;1.80;;
6203;SDS011;3135;42.602;23.468;2023-08-07T05:22:43;1.90;;;1.80;;
6203;SDS011;3135;42.602;23.468;2023-08-07T05:25:08;1.90;;;1.70;;
6203;SDS011;3135;42.602;23.468;2023-08-07T05:27:34;3.90;;;1.70;;
6203;SDS011;3135;42.602;23.468;2023-08-07T05:30:00;2.47;;;1.98;;
6203;SDS011;3135;42.602;23.468;2023-08-07T05:32:26;1.90;;;1.80;;
6203;SDS011;3135;42.602;23.468;2023-08-07T05:34:52;1.87;;;1.77;;
6203;SDS011;3135;42.602;23.468;2023-08-07T05:37:17;1.93;;;1.73;;
6203;SDS011;3135;42.602;23.468;2023-08-07T05:39:44;2.20;;;1.80;;
6203;SDS011;3135;42.602;23.468;2023-08-07T05:42:09;2.00;;;1.90;;
6203;SDS011;3135;42.602;23.468;2023-08-07T05:44:35;2.00;;;1.80;;
6203;SDS011;3135;42.602;23.468;2023-08-07T05:47:00;1.88;;;1.75;;
6203;SDS011;3135;42.602;23.468;2023-08-07T05:49:26;1.80;;;1.70;;
6203;SDS011;3135;42.602;23.468;2023-08-07T05:51:52;1.70;;;1.60;;
6203;SDS011;3135;42.602;23.468;2023-08-07T05:54:18;2.53;;;1.73;;
6203;SDS011;3135;42.602;23.468;2023-08-07T05:56:43;1.80;;;1.50;;
6203;SDS011;3135;42.602;23.468;2023-08-07T05:59:09;1.90;;;1.70;;
6203;SDS011;3135;42.602;23.468;2023-08-07T06:01:34;1.83;;;1.30;;
6203;SDS011;3135;42.602;23.468;2023-08-07T06:04:02;1.73;;;1.63;;
6203;SDS011;3135;42.602;23.468;2023-08-07T06:06:27;1.55;;;1.45;;
6203;SDS011;3135;42.602;23.468;2023-08-07T06:08:53;1.90;;;1.80;;
6203;SDS011;3135;42.602;23.468;2023-08-07T06:11:19;3.90;;;1.77;;
6203;SDS011;3135;42.602;23.468;2023-08-07T06:13:44;2.20;;;1.73;;
6203;SDS011;3135;42.602;23.468;2023-08-07T06:16:10;2.00;;;1.90;;
6203;SDS011;3135;42.602;23.468;2023-08-07T06:18:36;1.70;;;1.60;;
6203;SDS011;3135;42.602;23.468;2023-08-07T06:21:02;1.67;;;1.58;;
6203;SDS011;3135;42.602;23.468;2023-08-07T06:23:28;1.60;;;1.50;;
6203;SDS011;3135;42.602;23.468;2023-08-07T06:25:54;1.60;;;1.40;;
6203;SDS011;3135;42.602;23.468;2023-08-07T06:28:20;1.42;;;1.33;;
6203;SDS011;3135;42.602;23.468;2023-08-07T06:30:46;1.48;;;1.38;;
6203;SDS011;3135;42.602;23.468;2023-08-07T06:33:11;1.47;;;1.37;;
6203;SDS011;3135;42.602;23.468;2023-08-07T06:35:37;2.10;;;1.40;;
6203;SDS011;3135;42.602;23.468;2023-08-07T06:38:04;1.20;;;1.10;;
6203;SDS011;3135;42.602;23.468;2023-08-07T06:40:30;1.27;;;1.20;;
6203;SDS011;3135;42.602;23.468;2023-08-07T06:42:55;1.30;;;1.20;;
6203;SDS011;3135;42.602;23.468;2023-08-07T06:45:20;1.60;;;1.30;;
6203;SDS011;3135;42.602;23.468;2023-08-07T06:47:46;1.50;;;1.30;;
6203;SDS011;3135;42.602;23.468;2023-08-07T06:50:11;1.20;;;1.10;;
6203;SDS011;3135;42.602;23.468;2023-08-07T06:52:38;1.52;;;1.25;;
6203;SDS011;3135;42.602;23.468;2023-08-07T06:55:04;1.70;;;1.27;;
6203;SDS011;3135;42.602;23.468;2023-08-07T06:57:29;1.30;;;1.20;;
6203;SDS011;3135;42.602;23.468;2023-08-07T06:59:55;1.00;;;1.00;;
6203;SDS011;3135;42.602;23.468;2023-08-07T07:02:20;0.90;;;0.90;;
6203;SDS011;3135;42.602;23.468;2023-08-07T07:04:46;1.53;;;1.00;;
6203;SDS011;3135;42.602;23.468;2023-08-07T07:07:11;1.13;;;1.08;;
6203;SDS011;3135;42.602;23.468;2023-08-07T07:09:37;1.30;;;1.20;;
6203;SDS011;3135;42.602;23.468;2023-08-07T07:12:02;3.23;;;1.10;;
6203;SDS011;3135;42.602;23.468;2023-08-07T07:14:28;1.20;;;1.20;;
6203;SDS011;3135;42.602;23.468;2023-08-07T07:16:53;0.90;;;0.90;;
6203;SDS011;3135;42.602;23.468;2023-08-07T07:19:19;0.80;;;0.80;;
6203;SDS011;3135;42.602;23.468;2023-08-07T07:21:44;0.90;;;0.90;;
6203;SDS011;3135;42.602;23.468;2023-08-07T07:24:10;1.20;;;1.00;;
6203;SDS011;3135;42.602;23.468;2023-08-07T07:26:35;0.90;;;0.90;;
6203;SDS011;3135;42.602;23.468;2023-08-07T07:29:01;0.80;;;0.80;;
6203;SDS011;3135;42.602;23.468;2023-08-07T07:31:26;1.70;;;0.70;;
6203;SDS011;3135;42.602;23.468;2023-08-07T07:33:52;0.80;;;0.80;;
6203;SDS011;3135;42.602;23.468;2023-08-07T07:36:18;1.88;;;1.20;;
6203;SDS011;3135;42.602;23.468;2023-08-07T07:38:47;0.77;;;0.77;;
6203;SDS011;3135;42.602;23.468;2023-08-07T07:41:13;0.98;;;0.70;;
6203;SDS011;3135;42.602;23.468;2023-08-07T07:43:39;0.80;;;0.80;;
6203;SDS011;3135;42.602;23.468;2023-08-07T07:46:05;1.10;;;0.80;;
6203;SDS011;3135;42.602;23.468;2023-08-07T07:48:31;1.00;;;0.70;;
6203;SDS011;3135;42.602;23.468;2023-08-07T07:51:00;1.10;;;0.70;;
6203;SDS011;3135;42.602;23.468;2023-08-07T07:53:29;1.80;;;0.80;;
6203;SDS011;3135;42.602;23.468;2023-08-07T07:55:55;1.13;;;1.00;;
6203;SDS011;3135;42.602;23.468;2023-08-07T07:58:21;0.90;;;0.90;;
6203;SDS011;3135;42.602;23.468;2023-08-07T08:00:47;1.40;;;0.87;;
6203;SDS011;3135;42.602;23.468;2023-08-07T08:03:12;0.90;;;0.90;;
6203;SDS011;3135;42.602;23.468;2023-08-07T08:05:38;0.90;;;0.90;;
6203;SDS011;3135;42.602;23.468;2023-08-07T08:08:04;1.02;;;0.98;;
6203;SDS011;3135;42.602;23.468;2023-08-07T08:10:31;1.63;;;0.85;;
6203;SDS011;3135;42.602;23.468;2023-08-07T08:12:57;0.70;;;0.70;;
6203;SDS011;3135;42.602;23.468;2023-08-07T08:15:22;1.20;;;0.90;;
6203;SDS011;3135;42.602;23.468;2023-08-07T08:17:48;1.40;;;0.82;;
6203;SDS011;3135;42.602;23.468;2023-08-07T08:20:14;1.73;;;1.00;;
6203;SDS011;3135;42.602;23.468;2023-08-07T08:22:45;1.00;;;0.85;;
6203;SDS011;3135;42.602;23.468;2023-08-07T08:25:11;0.90;;;0.90;;
6203;SDS011;3135;42.602;23.468;2023-08-07T08:27:37;1.13;;;0.87;;
6203;SDS011;3135;42.602;23.468;2023-08-07T08:30:03;0.90;;;0.90;;
6203;SDS011;3135;42.602;23.468;2023-08-07T08:32:29;0.90;;;0.90;;
6203;SDS011;3135;42.602;23.468;2023-08-07T08:34:55;0.90;;;0.85;;
6203;SDS011;3135;42.602;23.468;2023-08-07T08:37:20;2.83;;;0.90;;
6203;SDS011;3135;42.602;23.468;2023-08-07T08:39:46;1.38;;;0.95;;
6203;SDS011;3135;42.602;23.468;2023-08-07T08:42:11;1.90;;;1.00;;
6203;SDS011;3135;42.602;23.468;2023-08-07T08:44:40;1.88;;;0.95;;
6203;SDS011;3135;42.602;23.468;2023-08-07T08:47:11;1.75;;;1.10;;
6203;SDS011;3135;42.602;23.468;2023-08-07T08:49:42;1.10;;;1.10;;
6203;SDS011;3135;42.602;23.468;2023-08-07T08:52:12;1.90;;;1.10;;
6203;SDS011;3135;42.602;23.468;2023-08-07T08:54:38;1.13;;;0.90;;
6203;SDS011;3135;42.602;23.468;2023-08-07T08:57:05;2.17;;;1.10;;
6203;SDS011;3135;42.602;23.468;2023-08-07T08:59:32;1.10;;;1.00;;
6203;SDS011;3135;42.602;23.468;2023-08-07T09:01:58;1.00;;;1.00;;
6203;SDS011;3135;42.602;23.468;2023-08-07T09:04:24;1.10;;;1.10;;
6203;SDS011;3135;42.602;23.468;2023-08-07T09:06:49;0.90;;;0.90;;
6203;SDS011;3135;42.602;23.468;2023-08-07T09:09:15;0.97;;;0.97;;
6203;SDS011;3135;42.602;23.468;2023-08-07T09:11:42;2.53;;;1.02;;
6203;SDS011;3135;42.602;23.468;2023-08-07T09:14:11;1.20;;;1.00;;
6203;SDS011;3135;42.602;23.468;2023-08-07T09:16:40;0.80;;;0.80;;
6203;SDS011;3135;42.602;23.468;2023-08-07T09:19:06;1.10;;;1.00;;
6203;SDS011;3135;42.602;23.468;2023-08-07T09:21:31;1.30;;;1.00;;
6203;SDS011;3135;42.602;23.468;2023-08-07T09:23:57;2.03;;;1.10;;
6203;SDS011;3135;42.602;23.468;2023-08-07T09:26:22;1.77;;;1.30;;
6203;SDS011;3135;42.602;23.468;2023-08-07T09:28:50;2.00;;;1.50;;
6203;SDS011;3135;42.602;23.468;2023-08-07T09:31:19;1.87;;;1.70;;
6203;SDS011;3135;42.602;23.468;2023-08-07T09:33:46;3.07;;;1.43;;
6203;SDS011;3135;42.602;23.468;2023-08-07T09:36:13;1.42;;;1.20;;
6203;SDS011;3135;42.602;23.468;2023-08-07T09:38:38;1.40;;;1.20;;
6203;SDS011;3135;42.602;23.468;2023-08-07T09:41:04;0.90;;;0.90;;
6203;SDS011;3135;42.602;23.468;2023-08-07T09:43:33;0.80;;;0.80;;
6203;SDS011;3135;42.602;23.468;2023-08-07T09:46:02;0.80;;;0.68;;
6203;SDS011;3135;42.602;23.468;2023-08-07T09:48:31;0.68;;;0.68;;
6203;SDS011;3135;42.602;23.468;2023-08-07T09:51:00;1.48;;;0.82;;
6203;SDS011;3135;42.602;23.468;2023-08-07T09:53:29;2.15;;;0.80;;
6203;SDS011;3135;42.602;23.468;2023-08-07T09:55:55;1.00;;;0.50;;
6203;SDS011;3135;42.602;23.468;2023-08-07T09:58:20;0.70;;;0.60;;
6203;SDS011;3135;42.602;23.468;2023-08-07T10:00:46;0.60;;;0.60;;
6203;SDS011;3135;42.602;23.468;2023-08-07T10:03:13;1.40;;;0.70;;
6203;SDS011;3135;42.602;23.468;2023-08-07T10:05:39;0.80;;;0.80;;
6203;SDS011;3135;42.602;23.468;2023-08-07T10:08:08;0.70;;;0.70;;
6203;SDS011;3135;42.602;23.468;2023-08-07T10:10:35;0.80;;;0.80;;
6203;SDS011;3135;42.602;23.468;2023-08-07T10:13:02;2.08;;;0.82;;
6203;SDS011;3135;42.602;23.468;2023-08-07T10:15:29;0.70;;;0.70;;
6203;SDS011;3135;42.602;23.468;2023-08-07T10:17:55;0.80;;;0.75;;
6203;SDS011;3135;42.602;23.468;2023-08-07T10:20:21;0.90;;;0.70;;
6203;SDS011;3135;42.602;23.468;2023-08-07T10:22:49;1.25;;;0.70;;
6203;SDS011;3135;42.602;23.468;2023-08-07T10:25:16;0.60;;;0.60;;
6203;SDS011;3135;42.602;23.468;2023-08-07T10:27:46;0.60;;;0.60;;
6203;SDS011;3135;42.602;23.468;2023-08-07T10:30:14;0.70;;;0.70;;
6203;SDS011;3135;42.602;23.468;2023-08-07T10:32:42;1.13;;;0.60;;
6203;SDS011;3135;42.602;23.468;2023-08-07T10:35:09;0.95;;;0.70;;
6203;SDS011;3135;42.602;23.468;2023-08-07T10:40:08;0.73;;;0.73;;
6203;SDS011;3135;42.602;23.468;2023-08-07T10:45:19;1.20;;;0.90;;
6203;SDS011;3135;42.602;23.468;2023-08-07T10:48:06;1.10;;;1.00;;
6203;SDS011;3135;42.602;23.468;2023-08-07T10:50:55;0.75;;;0.75;;
6203;SDS011;3135;42.602;23.468;2023-08-07T10:53:30;0.80;;;0.80;;
6203;SDS011;3135;42.602;23.468;2023-08-07T10:55:57;1.00;;;0.90;;
6203;SDS011;3135;42.602;23.468;2023-08-07T10:58:28;1.10;;;1.00;;
6203;SDS011;3135;42.602;23.468;2023-08-07T11:03:45;0.98;;;0.98;;
6203;SDS011;3135;42.602;23.468;2023-08-07T11:06:15;0.85;;;0.80;;
6203;SDS011;3135;42.602;23.468;2023-08-07T11:08:41;0.90;;;0.90;;
6203;SDS011;3135;42.602;23.468;2023-08-07T11:11:07;0.75;;;0.75;;
6203;SDS011;3135;42.602;23.468;2023-08-07T11:13:33;1.80;;;0.90;;
6203;SDS011;3135;42.602;23.468;2023-08-07T11:15:59;1.33;;;0.83;;
6203;SDS011;3135;42.602;23.468;2023-08-07T11:18:26;1.35;;;0.90;;
6203;SDS011;3135;42.602;23.468;2023-08-07T11:20:52;0.90;;;0.90;;
6203;SDS011;3135;42.602;23.468;2023-08-07T11:23:24;1.00;;;0.90;;
6203;SDS011;3135;42.602;23.468;2023-08-07T11:25:51;0.80;;;0.80;;
6203;SDS011;3135;42.602;23.468;2023-08-07T11:28:20;0.98;;;0.93;;
6203;SDS011;3135;42.602;23.468;2023-08-07T11:30:55;1.02;;;0.90;;
6203;SDS011;3135;42.602;23.468;2023-08-07T11:33:21;2.03;;;1.00;;
6203;SDS011;3135;42.602;23.468;2023-08-07T11:35:48;3.33;;;3.13;;
6203;SDS011;3135;42.602;23.468;2023-08-07T11:40:59;0.90;;;0.90;;
6203;SDS011;3135;42.602;23.468;2023-08-07T11:43:32;1.10;;;1.10;;
6203;SDS011;3135;42.602;23.468;2023-08-07T11:45:59;0.98;;;0.98;;
6203;SDS011;3135;42.602;23.468;2023-08-07T11:48:28;1.40;;;0.90;;
6203;SDS011;3135;42.602;23.468;2023-08-07T11:50:55;1.65;;;0.90;;
6203;SDS011;3135;42.602;23.468;2023-08-07T11:53:21;2.38;;;1.00;;
6203;SDS011;3135;42.602;23.468;2023-08-07T11:55:51;0.87;;;0.87;;
6203;SDS011;3135;42.602;23.468;2023-08-07T11:58:19;2.33;;;0.90;;
6203;SDS011;3135;42.602;23.468;2023-08-07T12:00:45;0.98;;;0.80;;
6203;SDS011;3135;42.602;23.468;2023-08-07T12:03:34;0.80;;;0.80;;
6203;SDS011;3135;42.602;23.468;2023-08-07T12:06:04;2.88;;;0.95;;
6203;SDS011;3135;42.602;23.468;2023-08-07T12:08:35;1.00;;;0.90;;
6203;SDS011;3135;42.602;23.468;2023-08-07T12:11:04;0.70;;;0.70;;
6203;SDS011;3135;42.602;23.468;2023-08-07T12:13:36;1.55;;;1.00;;
6203;SDS011;3135;42.602;23.468;2023-08-07T12:16:02;1.00;;;0.90;;
6203;SDS011;3135;42.602;23.468;2023-08-07T12:18:31;1.00;;;0.90;;
6203;SDS011;3135;42.602;23.468;2023-08-07T12:21:00;2.45;;;1.20;;
6203;SDS011;3135;42.602;23.468;2023-08-07T12:23:27;1.00;;;0.90;;
6203;SDS011;3135;42.602;23.468;2023-08-07T12:25:53;1.15;;;0.90;;
6203;SDS011;3135;42.602;23.468;2023-08-07T12:28:19;0.77;;;0.77;;
6203;SDS011;3135;42.602;23.468;2023-08-07T12:30:46;1.80;;;0.90;;
6203;SDS011;3135;42.602;23.468;2023-08-07T12:33:12;0.98;;;0.98;;
6203;SDS011;3135;42.602;23.468;2023-08-07T12:35:38;4.40;;;1.40;;
6203;SDS011;3135;42.602;23.468;2023-08-07T12:38:04;2.35;;;0.90;;
6203;SDS011;3135;42.602;23.468;2023-08-07T12:40:30;0.90;;;0.90;;
6203;SDS011;3135;42.602;23.468;2023-08-07T12:42:56;1.05;;;1.00;;
6203;SDS011;3135;42.602;23.468;2023-08-07T12:45:23;0.93;;;0.90;;
6203;SDS011;3135;42.602;23.468;2023-08-07T12:47:48;0.90;;;0.90;;
6203;SDS011;3135;42.602;23.468;2023-08-07T12:50:14;1.77;;;0.90;;
6203;SDS011;3135;42.602;23.468;2023-08-07T12:52:39;0.90;;;0.80;;
6203;SDS011;3135;42.602;23.468;2023-08-07T12:55:06;1.40;;;0.88;;
6203;SDS011;3135;42.602;23.468;2023-08-07T12:57:32;0.90;;;0.90;;
6203;SDS011;3135;42.602;23.468;2023-08-07T12:59:57;0.97;;;0.97;;
6203;SDS011;3135;42.602;23.468;2023-08-07T13:02:23;0.80;;;0.80;;
6203;SDS011;3135;42.602;23.468;2023-08-07T13:04:48;0.90;;;0.90;;
6203;SDS011;3135;42.602;23.468;2023-08-07T13:07:14;1.35;;;0.88;;
6203;SDS011;3135;42.602;23.468;2023-08-07T13:09:39;1.00;;;1.00;;
6203;SDS011;3135;42.602;23.468;2023-08-07T13:12:05;1.00;;;0.90;;
6203;SDS011;3135;42.602;23.468;2023-08-07T13:14:30;1.53;;;0.90;;
6203;SDS011;3135;42.602;23.468;2023-08-07T13:16:56;1.90;;;0.90;;
6203;SDS011;3135;42.602;23.468;2023-08-07T13:19:21;0.87;;;0.87;;
6203;SDS011;3135;42.602;23.468;2023-08-07T13:21:47;0.90;;;0.90;;
6203;SDS011;3135;42.602;23.468;2023-08-07T13:24:12;0.90;;;0.90;;
6203;SDS011;3135;42.602;23.468;2023-08-07T13:26:38;1.00;;;1.00;;
6203;SDS011;3135;42.602;23.468;2023-08-07T13:29:09;0.90;;;0.90;;
6203;SDS011;3135;42.602;23.468;2023-08-07T13:31:38;1.10;;;1.00;;
6203;SDS011;3135;42.602;23.468;2023-08-07T13:34:06;1.27;;;1.00;;
6203;SDS011;3135;42.602;23.468;2023-08-07T13:36:33;1.00;;;1.00;;
6203;SDS011;3135;42.602;23.468;2023-08-07T13:39:00;0.90;;;0.90;;
6203;SDS011;3135;42.602;23.468;2023-08-07T13:41:26;1.00;;;1.00;;
6203;SDS011;3135;42.602;23.468;2023-08-07T13:43:52;4.50;;;3.30;;
6203;SDS011;3135;42.602;23.468;2023-08-07T13:46:17;1.30;;;1.10;;
6203;SDS011;3135;42.602;23.468;2023-08-07T13:48:44;2.20;;;1.00;;
6203;SDS011;3135;42.602;23.468;2023-08-07T13:51:10;1.57;;;1.00;;
6203;SDS011;3135;42.602;23.468;2023-08-07T13:53:35;2.07;;;1.10;;
6203;SDS011;3135;42.602;23.468;2023-08-07T13:56:01;1.80;;;1.00;;
6203;SDS011;3135;42.602;23.468;2023-08-07T13:58:28;1.42;;;0.90;;
6203;SDS011;3135;42.602;23.468;2023-08-07T14:00:53;2.75;;;1.10;;
6203;SDS011;3135;42.602;23.468;2023-08-07T14:03:19;1.60;;;1.50;;
6203;SDS011;3135;42.602;23.468;2023-08-07T14:05:45;1.77;;;1.67;;
6203;SDS011;3135;42.602;23.468;2023-08-07T14:08:11;1.52;;;1.42;;
6203;SDS011;3135;42.602;23.468;2023-08-07T14:10:36;1.00;;;0.90;;
6203;SDS011;3135;42.602;23.468;2023-08-07T14:13:04;1.30;;;0.93;;
6203;SDS011;3135;42.602;23.468;2023-08-07T14:15:30;0.88;;;0.88;;
6203;SDS011;3135;42.602;23.468;2023-08-07T14:17:56;1.35;;;0.90;;
6203;SDS011;3135;42.602;23.468;2023-08-07T14:20:22;2.00;;;1.00;;
6203;SDS011;3135;42.602;23.468;2023-08-07T14:22:48;1.10;;;0.90;;
6203;SDS011;3135;42.602;23.468;2023-08-07T14:25:15;0.80;;;0.80;;
6203;SDS011;3135;42.602;23.468;2023-08-07T14:27:40;1.30;;;0.90;;
6203;SDS011;3135;42.602;23.468;2023-08-07T14:30:06;0.80;;;0.80;;
6203;SDS011;3135;42.602;23.468;2023-08-07T14:32:32;1.63;;;0.90;;
6203;SDS011;3135;42.602;23.468;2023-08-07T14:34:57;1.40;;;0.90;;
6203;SDS011;3135;42.602;23.468;2023-08-07T14:37:22;0.83;;;0.83;;
6203;SDS011;3135;42.602;23.468;2023-08-07T14:39:48;0.87;;;0.87;;
6203;SDS011;3135;42.602;23.468;2023-08-07T14:42:13;0.87;;;0.80;;
6203;SDS011;3135;42.602;23.468;2023-08-07T14:44:39;1.30;;;1.20;;
6203;SDS011;3135;42.602;23.468;2023-08-07T14:47:04;0.80;;;0.80;;
6203;SDS011;3135;42.602;23.468;2023-08-07T14:49:30;2.77;;;0.90;;
6203;SDS011;3135;42.602;23.468;2023-08-07T14:51:55;0.90;;;0.90;;
6203;SDS011;3135;42.602;23.468;2023-08-07T14:54:21;1.43;;;0.90;;
6203;SDS011;3135;42.602;23.468;2023-08-07T14:56:46;1.53;;;1.00;;
6203;SDS011;3135;42.602;23.468;2023-08-07T14:59:11;0.90;;;0.90;;
6203;SDS011;3135;42.602;23.468;2023-08-07T15:01:37;0.80;;;0.80;;
6203;SDS011;3135;42.602;23.468;2023-08-07T15:04:02;1.83;;;0.90;;
6203;SDS011;3135;42.602;23.468;2023-08-07T15:06:28;1.30;;;1.10;;
6203;SDS011;3135;42.602;23.468;2023-08-07T15:08:53;5.90;;;5.30;;